createdAt,value
2022-08-18T00:00:16.474Z,23.42
2022-08-18T00:03:00.789Z,23.31
2022-08-18T00:05:32.575Z,23.14
2022-08-18T00:08:07.920Z,22.97
2022-08-18T00:10:37.189Z,22.83
2022-08-18T00:13:07.846Z,22.74
2022-08-18T00:15:41.726Z,22.77
2022-08-18T00:18:20.145Z,22.82
2022-08-18T00:20:50.912Z,22.89
2022-08-18T00:23:21.646Z,22.92
2022-08-18T00:25:52.328Z,22.83
2022-08-18T00:28:23.940Z,22.77
2022-08-18T00:30:54.971Z,22.77
2022-08-18T00:33:25.682Z,22.79
2022-08-18T00:35:56.718Z,22.87
2022-08-18T00:38:27.457Z,22.96
2022-08-18T00:40:58.722Z,22.97
2022-08-18T00:43:40.262Z,23.04
2022-08-18T00:46:15.355Z,23.09
2022-08-18T00:48:48.694Z,23.08
2022-08-18T00:51:24.398Z,23.00
2022-08-18T00:54:01.491Z,22.96
2022-08-18T00:56:36.069Z,22.89
2022-08-18T00:59:12.522Z,22.87
2022-08-18T01:01:45.867Z,22.83
2022-08-18T01:04:21.447Z,22.86
2022-08-18T01:06:55.563Z,22.90
2022-08-18T01:09:26.449Z,22.90
2022-08-18T01:11:57.670Z,22.88
2022-08-18T01:14:28.789Z,22.81
2022-08-18T01:17:17.061Z,22.66
2022-08-18T01:20:05.557Z,22.52
2022-08-18T01:22:44.613Z,22.34
2022-08-18T01:25:34.437Z,22.20
2022-08-18T01:28:06.070Z,22.02
2022-08-18T01:30:49.686Z,22.00
2022-08-18T01:33:21.012Z,22.06
2022-08-18T01:36:03.593Z,22.18
2022-08-18T01:38:34.398Z,22.22
2022-08-18T01:41:25.654Z,22.28
2022-08-18T01:43:56.322Z,22.41
2022-08-18T01:46:27.662Z,22.51
2022-08-18T01:49:01.302Z,22.55
2022-08-18T01:51:39.944Z,22.52
2022-08-18T01:54:14.719Z,22.45
2022-08-18T01:56:48.471Z,22.42
2022-08-18T01:59:19.270Z,22.40
2022-08-18T02:01:53.736Z,22.43
2022-08-18T02:04:35.737Z,22.49
2022-08-18T02:07:10.936Z,22.48
2022-08-18T02:09:43.685Z,22.49
2022-08-18T02:12:15.004Z,22.40
2022-08-18T02:14:45.792Z,22.35
2022-08-18T02:17:17.143Z,22.34
2022-08-18T02:19:49.121Z,22.38
2022-08-18T02:22:21.594Z,22.43
2022-08-18T02:24:52.329Z,22.48
2022-08-18T02:27:23.100Z,22.49
2022-08-18T02:29:53.925Z,22.49
2022-08-18T02:32:24.607Z,22.50
2022-08-18T02:34:57.770Z,22.55
2022-08-18T02:37:28.415Z,22.63
2022-08-18T02:39:59.699Z,22.71
2022-08-18T02:42:31.098Z,22.67
2022-08-18T02:45:01.826Z,22.65
2022-08-18T02:47:33.779Z,22.66
2022-08-18T02:50:04.946Z,22.69
2022-08-18T02:52:37.184Z,22.66
2022-08-18T02:55:12.341Z,22.55
2022-08-18T02:57:46.387Z,22.37
2022-08-18T03:00:19.296Z,22.23
2022-08-18T03:02:51.605Z,22.21
2022-08-18T03:05:22.653Z,22.27
2022-08-18T03:07:54.087Z,22.29
2022-08-18T03:10:33.027Z,22.25
2022-08-18T03:13:05.821Z,22.30
2022-08-18T03:15:36.521Z,22.26
2022-08-18T03:18:07.561Z,22.26
2022-08-18T03:20:38.424Z,22.27
2022-08-18T03:23:09.726Z,22.29
2022-08-18T03:25:46.529Z,22.35
2022-08-18T03:28:18.801Z,22.32
2022-08-18T03:30:49.625Z,22.29
2022-08-18T03:33:20.367Z,22.20
2022-08-18T03:35:52.534Z,22.20
2022-08-18T03:38:24.792Z,22.24
2022-08-18T03:40:56.349Z,22.34
2022-08-18T03:43:51.322Z,22.38
2022-08-18T03:46:20.818Z,22.23
2022-08-18T03:48:53.329Z,22.03
2022-08-18T03:51:26.780Z,21.77
2022-08-18T03:53:59.136Z,21.59
2022-08-18T03:56:34.051Z,21.51
2022-08-18T03:59:08.680Z,21.43
2022-08-18T04:01:43.304Z,21.43
2022-08-18T04:04:19.280Z,21.43
2022-08-18T04:06:55.310Z,21.41
2022-08-18T04:09:27.692Z,21.40
2022-08-18T04:12:00.053Z,21.37
2022-08-18T04:14:31.645Z,21.39
2022-08-18T04:17:02.734Z,21.39
2022-08-18T04:19:34.679Z,21.39
2022-08-18T04:22:04.333Z,21.39
2022-08-18T04:24:35.946Z,21.32
2022-08-18T04:27:07.541Z,21.30
2022-08-18T04:29:38.312Z,21.30
2022-08-18T04:32:09.605Z,21.42
2022-08-18T04:34:40.300Z,21.61
2022-08-18T04:37:12.079Z,21.83
2022-08-18T04:39:43.321Z,21.98
2022-08-18T04:42:14.453Z,22.07
2022-08-18T04:44:45.380Z,22.12
2022-08-18T04:47:16.192Z,22.11
2022-08-18T04:49:46.887Z,22.17
2022-08-18T04:52:39.740Z,22.23
2022-08-18T04:55:13.237Z,22.28
2022-08-18T04:57:44.519Z,22.33
2022-08-18T05:00:17.368Z,22.38
2022-08-18T05:02:48.566Z,22.46
2022-08-18T05:05:19.629Z,22.58
2022-08-18T05:07:50.466Z,22.86
2022-08-18T05:10:21.261Z,23.11
2022-08-18T05:12:52.187Z,23.19
2022-08-18T05:15:23.064Z,23.28
2022-08-18T05:17:54.030Z,23.52
2022-08-18T05:20:25.431Z,23.71
2022-08-18T05:22:57.483Z,23.75
2022-08-18T05:25:29.462Z,23.80
2022-08-18T05:28:00.246Z,23.85
2022-08-18T05:30:31.036Z,23.91
2022-08-18T05:33:03.484Z,23.89
2022-08-18T05:35:42.254Z,23.89
2022-08-18T05:38:24.079Z,23.97
2022-08-18T05:41:06.944Z,24.05
2022-08-18T05:43:40.682Z,24.08
2022-08-18T05:46:33.570Z,24.08
2022-08-18T05:49:04.224Z,24.11
2022-08-18T05:51:41.015Z,24.13
2022-08-18T05:54:30.472Z,24.19
2022-08-18T05:57:05.605Z,24.26
2022-08-18T05:59:39.478Z,24.47
2022-08-18T06:02:25.296Z,24.76
2022-08-18T06:04:58.187Z,25.12
2022-08-18T06:07:37.116Z,25.50
2022-08-18T06:10:11.338Z,25.88
2022-08-18T06:12:47.250Z,26.21
2022-08-18T06:15:23.088Z,26.50
2022-08-18T06:18:18.659Z,26.84
2022-08-18T06:21:02.691Z,27.24
2022-08-18T06:23:43.500Z,27.53
2022-08-18T06:26:20.435Z,27.78
2022-08-18T06:29:03.929Z,28.08
2022-08-18T06:31:42.046Z,28.50
2022-08-18T06:34:21.325Z,28.81
2022-08-18T06:36:56.862Z,29.06
2022-08-18T06:39:33.400Z,29.20
2022-08-18T06:42:05.918Z,29.41
2022-08-18T06:44:40.240Z,29.62
2022-08-18T06:47:18.190Z,29.78
2022-08-18T06:49:55.952Z,29.98
2022-08-18T06:52:32.302Z,30.14
2022-08-18T06:55:06.613Z,30.31
2022-08-18T06:57:39.755Z,30.46
2022-08-18T07:00:24.287Z,30.61
2022-08-18T07:02:59.187Z,30.76
2022-08-18T07:05:32.264Z,30.91
2022-08-18T07:08:14.500Z,31.17
2022-08-18T07:10:47.213Z,31.46
2022-08-18T07:13:26.348Z,31.73
2022-08-18T07:16:15.812Z,31.95
2022-08-18T07:18:48.241Z,32.10
2022-08-18T07:21:30.332Z,32.11
2022-08-18T07:24:23.703Z,31.88
2022-08-18T07:27:07.290Z,31.64
2022-08-18T07:29:41.702Z,31.37
2022-08-18T07:32:21.097Z,31.10
2022-08-18T07:34:58.265Z,30.83
2022-08-18T07:37:33.977Z,30.61
2022-08-18T07:40:12.334Z,30.44
2022-08-18T07:43:00.870Z,30.27
2022-08-18T07:45:38.309Z,30.13
2022-08-18T07:51:15.154Z,29.85
2022-08-18T07:53:57.997Z,29.74
2022-08-18T07:56:43.160Z,29.63
2022-08-18T07:59:25.382Z,29.51
2022-08-18T08:02:09.103Z,29.36
2022-08-18T08:04:55.498Z,29.25
2022-08-18T08:07:30.950Z,29.18
2022-08-18T08:10:18.896Z,29.12
2022-08-18T08:13:08.447Z,29.04
2022-08-18T08:15:55.692Z,29.00
2022-08-18T08:18:33.782Z,28.96
2022-08-18T08:21:11.047Z,28.89
2022-08-18T08:23:51.674Z,28.84
2022-08-18T08:26:34.742Z,28.78
2022-08-18T08:29:21.957Z,28.73
2022-08-18T08:31:58.968Z,28.70
2022-08-18T08:34:37.691Z,28.67
2022-08-18T08:37:11.254Z,28.68
2022-08-18T08:39:49.454Z,28.72
2022-08-18T08:42:30.896Z,28.79
2022-08-18T08:45:04.819Z,28.91
2022-08-18T08:47:42.127Z,29.07
2022-08-18T08:50:18.833Z,29.23
2022-08-18T08:52:57.293Z,29.59
2022-08-18T08:55:31.680Z,30.20
2022-08-18T08:58:16.786Z,30.79
2022-08-18T09:00:49.025Z,31.36
2022-08-18T09:03:32.447Z,31.81
2022-08-18T09:06:16.724Z,32.28
2022-08-18T09:09:17.968Z,32.61
2022-08-18T09:12:13.618Z,32.70
2022-08-18T09:15:18.885Z,32.75
2022-08-18T09:18:11.124Z,32.81
2022-08-18T09:21:00.155Z,33.06
2022-08-18T09:23:36.532Z,33.11
2022-08-18T09:26:43.708Z,33.25
2022-08-18T09:29:23.548Z,33.54
2022-08-18T09:32:35.752Z,33.56
2022-08-18T09:35:34.252Z,33.53
2022-08-18T09:38:31.456Z,33.42
2022-08-18T09:41:29.347Z,33.20
2022-08-18T09:44:17.866Z,32.98
2022-08-18T09:47:00.409Z,32.79
2022-08-18T09:49:47.796Z,32.69
2022-08-18T09:52:53.824Z,32.61
2022-08-18T09:56:01.364Z,32.43
2022-08-18T09:58:54.722Z,32.20
2022-08-18T10:01:36.488Z,32.00
2022-08-18T10:04:34.267Z,31.85
2022-08-18T10:07:35.365Z,31.70
2022-08-18T10:11:01.504Z,31.60
2022-08-18T10:13:24.995Z,31.55
2022-08-18T10:16:10.531Z,31.51
2022-08-18T10:19:10.657Z,31.45
2022-08-18T10:22:09.075Z,31.36
2022-08-18T10:24:47.715Z,31.29
2022-08-18T10:27:49.060Z,31.24
2022-08-18T10:31:09.804Z,31.15
2022-08-18T10:37:06.278Z,30.89
2022-08-18T10:39:50.109Z,30.77
2022-08-18T10:42:30.941Z,30.68
2022-08-18T10:45:11.089Z,30.60
2022-08-18T10:47:43.071Z,30.51
2022-08-18T10:50:24.151Z,30.39
2022-08-18T10:53:39.410Z,30.32
2022-08-18T10:56:05.946Z,30.27
2022-08-18T10:58:51.718Z,30.22
2022-08-18T11:01:43.983Z,30.21
2022-08-18T11:04:33.270Z,30.18
2022-08-18T11:07:10.965Z,30.13
2022-08-18T11:13:03.111Z,30.03
2022-08-18T11:15:50.537Z,29.94
2022-08-18T11:18:42.681Z,29.84
2022-08-18T11:21:32.534Z,29.76
2022-08-18T11:24:10.094Z,29.73
2022-08-18T11:26:41.785Z,29.72
2022-08-18T11:29:28.790Z,29.74
2022-08-18T11:32:04.915Z,29.77
2022-08-18T11:43:41.841Z,29.62
2022-08-18T11:46:29.914Z,29.59
2022-08-18T11:49:15.559Z,29.51
2022-08-18T11:52:03.198Z,29.41
2022-08-18T11:54:50.627Z,29.30
2022-08-18T11:57:56.142Z,29.21
2022-08-18T12:03:50.135Z,29.07
2022-08-18T12:06:27.897Z,28.97
2022-08-18T12:09:06.955Z,28.85
2022-08-18T12:11:50.132Z,28.73
2022-08-18T12:17:15.051Z,28.55
2022-08-18T12:19:45.932Z,28.51
2022-08-18T12:22:20.387Z,28.48
2022-08-18T12:24:53.163Z,28.47
2022-08-18T12:27:26.559Z,28.51
2022-08-18T12:30:05.083Z,28.58
2022-08-18T12:32:47.025Z,28.63
2022-08-18T12:35:28.107Z,28.71
2022-08-18T12:38:03.566Z,28.80
2022-08-18T12:40:44.809Z,28.89
2022-08-18T12:43:15.845Z,29.02
2022-08-18T12:45:47.747Z,29.21
2022-08-18T12:48:21.291Z,29.33
2022-08-18T12:50:58.361Z,29.40
2022-08-18T12:53:57.824Z,29.50
2022-08-18T12:56:25.759Z,29.57
2022-08-18T12:58:56.994Z,29.58
2022-08-18T13:01:26.872Z,29.61
2022-08-18T13:07:00.894Z,29.59
2022-08-18T13:09:53.753Z,29.56
2022-08-18T13:12:26.159Z,29.55
2022-08-18T13:14:58.312Z,29.54
2022-08-18T13:17:32.804Z,29.51
2022-08-18T13:20:10.294Z,29.50
2022-08-18T13:22:41.384Z,29.49
2022-08-18T13:25:28.871Z,29.47
2022-08-18T13:28:04.381Z,29.48
2022-08-18T13:30:35.598Z,29.52
2022-08-18T13:33:53.702Z,29.56
2022-08-18T13:35:58.330Z,29.64
2022-08-18T13:38:29.507Z,29.76
2022-08-18T13:41:05.022Z,29.94
2022-08-18T13:43:43.197Z,30.15
2022-08-18T13:46:16.706Z,30.27
2022-08-18T13:48:47.782Z,30.35
2022-08-18T13:51:23.727Z,30.41
2022-08-18T13:54:17.426Z,30.44
2022-08-18T13:56:51.743Z,30.44
2022-08-18T13:59:23.778Z,30.49
2022-08-18T14:01:53.617Z,30.59
2022-08-18T14:04:27.712Z,30.70
2022-08-18T14:07:03.201Z,30.80
2022-08-18T14:09:38.493Z,30.91
2022-08-18T14:12:22.423Z,30.98
2022-08-18T14:14:57.070Z,30.98
2022-08-18T14:17:28.345Z,30.98
2022-08-18T14:20:21.764Z,30.92
2022-08-18T14:23:21.984Z,30.77
2022-08-18T14:26:13.167Z,30.72
2022-08-18T14:28:43.921Z,30.63
2022-08-18T14:31:20.757Z,30.57
2022-08-18T14:33:55.507Z,30.58
2022-08-18T14:36:29.427Z,30.56
2022-08-18T14:39:02.042Z,30.56
2022-08-18T14:41:54.604Z,30.55
2022-08-18T14:44:31.868Z,30.56
2022-08-18T14:47:03.316Z,30.53
2022-08-18T14:49:36.154Z,30.49
2022-08-18T14:52:13.946Z,30.47
2022-08-18T14:54:46.264Z,30.47
2022-08-18T14:59:57.536Z,30.35
2022-08-18T15:02:28.252Z,30.26
2022-08-18T15:04:59.437Z,30.17
2022-08-18T15:07:32.772Z,30.09
2022-08-18T15:10:15.307Z,30.04
2022-08-18T15:12:51.049Z,29.97
2022-08-18T15:15:22.495Z,29.96
2022-08-18T15:17:53.893Z,29.95
2022-08-18T15:20:29.882Z,29.93
2022-08-18T15:23:24.659Z,29.88
2022-08-18T15:25:59.620Z,29.76
2022-08-18T15:28:30.735Z,29.67
2022-08-18T15:31:17.152Z,29.65
2022-08-18T15:33:50.268Z,29.62
2022-08-18T15:36:29.190Z,29.59
2022-08-18T15:39:01.170Z,29.57
2022-08-18T15:41:35.387Z,29.55
2022-08-18T15:44:16.370Z,29.56
2022-08-18T15:46:53.228Z,29.58
2022-08-18T15:49:24.460Z,29.61
2022-08-18T15:51:55.189Z,29.58
2022-08-18T15:54:27.998Z,29.56
2022-08-18T15:56:58.948Z,29.52
2022-08-18T15:59:34.310Z,29.51
2022-08-18T16:02:17.975Z,29.50
2022-08-18T16:04:50.429Z,29.46
2022-08-18T16:07:25.234Z,29.44
2022-08-18T16:10:13.860Z,29.39
2022-08-18T16:12:45.960Z,29.34
2022-08-18T16:15:21.519Z,29.27
2022-08-18T16:17:54.475Z,29.21
2022-08-18T16:20:25.991Z,29.16
2022-08-18T16:22:58.063Z,29.13
2022-08-18T16:25:29.813Z,29.10
2022-08-18T16:28:02.662Z,29.06
2022-08-18T16:30:35.326Z,29.01
2022-08-18T16:33:08.502Z,28.95
2022-08-18T16:35:39.781Z,28.88
2022-08-18T16:38:15.960Z,28.80
2022-08-18T16:40:47.550Z,28.72
2022-08-18T16:43:16.993Z,28.64
2022-08-18T16:45:48.717Z,28.57
2022-08-18T16:48:22.305Z,28.49
2022-08-18T16:50:53.379Z,28.44
2022-08-18T16:53:24.240Z,28.40
2022-08-18T16:55:54.924Z,28.37
2022-08-18T16:58:43.570Z,28.35
2022-08-18T17:01:33.839Z,28.32
2022-08-18T17:04:22.610Z,28.27
2022-08-18T17:06:53.434Z,28.20
2022-08-18T17:09:25.018Z,28.15
2022-08-18T17:11:54.617Z,28.09
2022-08-18T17:14:28.542Z,28.04
2022-08-18T17:17:00.355Z,28.01
2022-08-18T17:19:33.739Z,27.99
2022-08-18T17:22:06.113Z,27.97
2022-08-18T17:24:37.742Z,27.93
2022-08-18T17:27:27.213Z,27.90
2022-08-18T17:30:04.153Z,27.87
2022-08-18T17:32:47.690Z,27.85
2022-08-18T17:35:26.904Z,27.83
2022-08-18T17:38:04.726Z,27.81
2022-08-18T17:40:40.815Z,27.80
2022-08-18T17:43:16.739Z,27.78
2022-08-18T17:45:53.533Z,27.75
2022-08-18T17:48:29.599Z,27.73
2022-08-18T17:51:23.315Z,27.69
2022-08-18T17:53:54.077Z,27.65
2022-08-18T17:56:35.747Z,27.62
2022-08-18T17:59:51.083Z,27.58
2022-08-18T18:02:18.271Z,27.54
2022-08-18T18:05:03.056Z,27.50
2022-08-18T18:07:38.367Z,27.44
2022-08-18T18:10:12.416Z,27.43
2022-08-18T18:12:43.778Z,27.39
2022-08-18T18:15:30.841Z,27.34
2022-08-18T18:18:22.256Z,27.30
2022-08-18T18:21:06.127Z,27.27
2022-08-18T18:23:41.513Z,27.23
2022-08-18T18:26:38.473Z,27.20
2022-08-18T18:29:22.264Z,27.17
2022-08-18T18:32:02.731Z,27.10
2022-08-18T18:34:39.678Z,26.96
2022-08-18T18:37:28.714Z,26.79
2022-08-18T18:40:02.711Z,26.56
2022-08-18T18:42:36.798Z,26.43
2022-08-18T18:45:20.574Z,26.33
2022-08-18T18:48:03.817Z,26.23
2022-08-18T18:50:55.847Z,26.12
2022-08-18T18:53:39.856Z,25.85
2022-08-18T18:56:20.155Z,25.58
2022-08-18T18:58:59.517Z,25.43
2022-08-18T19:01:48.844Z,25.44
2022-08-18T19:04:29.036Z,25.49
2022-08-18T19:07:21.027Z,25.52
2022-08-18T19:10:01.793Z,25.35
2022-08-18T19:12:38.980Z,25.14
2022-08-18T19:15:15.417Z,25.09
2022-08-18T19:17:50.870Z,25.17
2022-08-18T19:20:26.089Z,25.18
2022-08-18T19:23:05.177Z,25.09
2022-08-18T19:25:43.589Z,25.04
2022-08-18T19:28:19.607Z,25.10
2022-08-18T19:30:54.654Z,25.19
2022-08-18T19:33:32.548Z,25.26
2022-08-18T19:36:19.349Z,25.36
2022-08-18T19:38:59.346Z,25.45
2022-08-18T19:41:40.392Z,25.49
2022-08-18T19:44:31.667Z,25.53
2022-08-18T19:47:12.163Z,25.53
2022-08-18T19:49:52.254Z,25.49
2022-08-18T19:52:45.471Z,25.45
2022-08-18T19:55:33.123Z,25.43
2022-08-18T19:58:24.563Z,25.41
2022-08-18T20:00:59.067Z,25.37
2022-08-18T20:03:54.451Z,25.35
2022-08-18T20:06:53.423Z,25.30
2022-08-18T20:09:59.029Z,25.29
2022-08-18T20:12:45.358Z,25.25
2022-08-18T20:15:21.767Z,25.22
2022-08-18T20:18:19.566Z,25.16
2022-08-18T20:21:34.143Z,25.17
2022-08-18T20:24:24.353Z,25.16
2022-08-18T20:26:55.089Z,25.13
2022-08-18T20:29:43.784Z,25.12
2022-08-18T20:32:29.650Z,25.12
2022-08-18T20:35:19.317Z,25.12
2022-08-18T20:37:50.202Z,25.11
2022-08-18T20:40:44.781Z,25.09
2022-08-18T20:43:32.223Z,25.06
2022-08-18T20:46:23.427Z,25.03
2022-08-18T20:49:09.434Z,25.05
2022-08-18T20:51:52.137Z,25.07
2022-08-18T20:54:42.417Z,25.08
2022-08-18T20:57:35.258Z,25.04
2022-08-18T21:00:15.816Z,25.02
2022-08-18T21:02:56.509Z,24.97
2022-08-18T21:05:32.651Z,24.92
2022-08-18T21:08:13.533Z,24.88
2022-08-18T21:10:52.978Z,24.89
2022-08-18T21:13:38.434Z,24.90
2022-08-18T21:16:10.147Z,24.92
2022-08-18T21:18:50.084Z,24.94
2022-08-18T21:21:27.223Z,24.96
2022-08-18T21:24:01.812Z,24.95
2022-08-18T21:26:34.179Z,24.87
2022-08-18T21:29:13.253Z,24.77
2022-08-18T21:31:46.305Z,24.67
2022-08-18T21:34:29.594Z,24.62
2022-08-18T21:37:02.461Z,24.67
2022-08-18T21:39:33.269Z,24.70
2022-08-18T21:42:04.543Z,24.72
2022-08-18T21:44:42.448Z,24.77
2022-08-18T21:47:20.240Z,24.85
2022-08-18T21:50:04.125Z,24.89
2022-08-18T21:52:35.796Z,24.89
2022-08-18T21:55:13.846Z,24.89
2022-08-18T21:58:01.365Z,24.91
2022-08-18T22:00:35.270Z,24.97
2022-08-18T22:03:23.191Z,25.03
2022-08-18T22:06:03.421Z,25.05
2022-08-18T22:08:51.356Z,25.09
2022-08-18T22:12:00.833Z,25.09
2022-08-18T22:14:54.980Z,25.09
2022-08-18T22:17:45.054Z,25.07
2022-08-18T22:20:46.529Z,25.06
2022-08-18T22:23:58.068Z,25.08
2022-08-18T22:26:35.945Z,25.08
2022-08-18T22:29:33.359Z,25.08
2022-08-18T22:32:05.233Z,25.08
2022-08-18T22:34:34.680Z,25.09
2022-08-18T22:37:09.893Z,25.07
2022-08-18T22:39:46.084Z,25.03
2022-08-18T22:42:18.018Z,24.98
2022-08-18T22:44:47.460Z,24.96
2022-08-18T22:47:18.869Z,24.93
2022-08-18T22:49:49.789Z,24.91
2022-08-18T22:52:30.063Z,24.91
2022-08-18T22:55:02.714Z,24.89
2022-08-18T22:57:38.444Z,24.84
2022-08-18T23:00:14.487Z,24.83
2022-08-18T23:02:47.818Z,24.83
2022-08-18T23:05:18.796Z,24.85
2022-08-18T23:07:49.875Z,24.82
2022-08-18T23:10:21.607Z,24.80
2022-08-18T23:12:52.425Z,24.77
2022-08-18T23:15:38.964Z,24.79
2022-08-18T23:18:09.926Z,24.82
2022-08-18T23:20:41.049Z,24.82
2022-08-18T23:23:11.883Z,24.81
2022-08-18T23:25:42.604Z,24.76
2022-08-18T23:28:15.795Z,24.76
2022-08-18T23:30:47.740Z,24.75
2022-08-18T23:33:21.649Z,24.72
2022-08-18T23:35:52.698Z,24.69
2022-08-18T23:38:23.839Z,24.65
2022-08-18T23:41:02.569Z,24.63
2022-08-18T23:43:35.632Z,24.64
2022-08-18T23:46:07.168Z,24.65
2022-08-18T23:48:37.876Z,24.64
2022-08-18T23:51:09.188Z,24.64
2022-08-18T23:53:39.920Z,24.64
2022-08-18T23:56:11.100Z,24.63
2022-08-18T23:58:43.260Z,24.62
